Time;durP1;ratioP1;P1;durP2;ratioP2;P2;SDS_P1;SDS_P2;PMS_P1;PMS_P2;Temp;Humidity;BMP_temperature;BMP_pressure;BME280_temperature;BME280_humidity;BME280_pressure;Samples;Min_cycle;Max_cycle;Signal;HPM_P1;HPM_P2
2023/10/19 00:01:25;;;;;;;20.83;11.50;;;;;;;11.15;100.00;99186.72;5028494;28;20037;-73
2023/10/19 00:03:55;;;;;;;18.95;11.90;;;;;;;11.15;100.00;99179.41;5028965;28;20083;-73
2023/10/19 00:06:23;;;;;;;16.88;11.57;;;;;;;11.19;100.00;99177.22;5029530;28;20445;-73
2023/10/19 00:08:50;;;;;;;21.90;13.10;;;;;;;11.23;100.00;99175.88;5030037;28;20489;-73
2023/10/19 00:11:26;;;;;;;17.42;11.23;;;;;;;11.24;100.00;99183.06;5030175;28;20080;-72
2023/10/19 00:13:53;;;;;;;19.55;12.02;;;;;;;11.25;100.00;99182.06;5029779;28;20099;-72
2023/10/19 00:16:35;;;;;;;19.48;11.65;;;;;;;11.28;100.00;99187.16;5030843;28;20069;-73
2023/10/19 00:19:01;;;;;;;18.63;11.20;;;;;;;11.31;100.00;99186.00;5049078;28;20037;-72
2023/10/19 00:21:27;;;;;;;19.48;12.18;;;;;;;11.31;100.00;99189.59;5044234;28;20041;-73
2023/10/19 00:23:58;;;;;;;20.20;11.63;;;;;;;11.32;100.00;99179.53;5028073;28;20457;-72
2023/10/19 00:26:29;;;;;;;19.52;10.82;;;;;;;11.34;100.00;99172.94;5028446;28;20126;-72
2023/10/19 00:28:57;;;;;;;17.55;11.57;;;;;;;11.42;100.00;99173.03;5029337;28;20038;-73
2023/10/19 00:31:33;;;;;;;17.55;11.70;;;;;;;11.45;100.00;99163.66;5029224;28;20149;-72
2023/10/19 00:34:00;;;;;;;17.60;9.73;;;;;;;11.52;100.00;99164.75;5028794;28;20152;-73
2023/10/19 00:36:26;;;;;;;18.75;9.80;;;;;;;11.54;100.00;99167.31;5039869;28;20036;-72
2023/10/19 00:38:53;;;;;;;15.85;9.95;;;;;;;11.60;100.00;99172.97;5047770;28;20021;-73
2023/10/19 00:41:30;;;;;;;19.92;11.60;;;;;;;11.63;100.00;99177.25;5047563;28;20068;-72
2023/10/19 00:44:12;;;;;;;14.50;10.05;;;;;;;11.66;100.00;99160.59;5029104;28;20041;-72
2023/10/19 00:46:52;;;;;;;14.85;9.98;;;;;;;11.69;100.00;99165.72;5029054;28;20114;-73
2023/10/19 00:49:18;;;;;;;15.85;10.35;;;;;;;11.72;100.00;99168.13;5028268;28;20544;-73
2023/10/19 00:54:50;;;;;;;21.27;10.40;;;;;;;11.82;100.00;99154.41;5027185;28;20045;-73
2023/10/19 00:57:20;;;;;;;15.48;9.88;;;;;;;11.85;100.00;99171.31;5028826;28;20067;-72
2023/10/19 00:59:53;;;;;;;18.52;10.52;;;;;;;11.87;100.00;99154.78;5027151;28;20489;-73
2023/10/19 01:04:56;;;;;;;15.30;10.10;;;;;;;11.99;100.00;99151.63;5048030;28;20037;-73
2023/10/19 01:09:53;;;;;;;17.92;10.00;;;;;;;12.10;100.00;99158.69;5043982;28;20037;-72
2023/10/19 01:12:25;;;;;;;14.55;10.55;;;;;;;12.14;100.00;99157.34;5027766;28;20037;-73
2023/10/19 01:15:13;;;;;;;15.35;9.82;;;;;;;12.20;100.00;99161.28;5027874;28;20489;-73
2023/10/19 01:17:43;;;;;;;14.35;9.60;;;;;;;12.27;100.00;99167.81;5035830;28;20087;-73
2023/10/19 01:20:21;;;;;;;14.63;9.10;;;;;;;12.31;100.00;99158.28;5026998;28;20544;-73
2023/10/19 01:25:50;;;;;;;13.73;7.95;;;;;;;12.44;100.00;99147.75;5046952;28;20098;-73
2023/10/19 01:28:17;;;;;;;18.02;8.15;;;;;;;12.53;100.00;99154.09;5045688;28;20174;-73
2023/10/19 01:30:44;;;;;;;13.90;7.95;;;;;;;12.59;100.00;99141.66;5028532;28;20462;-73
2023/10/19 01:33:12;;;;;;;13.68;7.50;;;;;;;12.62;100.00;99136.72;5028392;28;20048;-73
2023/10/19 01:38:23;;;;;;;12.43;6.28;;;;;;;12.72;100.00;99142.88;5027916;28;20095;-73
2023/10/19 01:40:48;;;;;;;12.82;6.93;;;;;;;12.79;100.00;99143.09;5029502;28;20030;-73
2023/10/19 01:43:21;;;;;;;11.05;6.43;;;;;;;12.83;100.00;99141.72;5046380;28;20419;-74
2023/10/19 01:45:47;;;;;;;12.85;6.15;;;;;;;12.85;100.00;99142.41;5032981;28;20037;-73
2023/10/19 01:48:13;;;;;;;10.30;5.95;;;;;;;12.88;100.00;99138.50;5027364;28;20037;-74
2023/10/19 01:50:39;;;;;;;10.45;6.18;;;;;;;12.90;100.00;99131.84;5026894;28;20045;-73
2023/10/19 01:53:15;;;;;;;11.30;6.13;;;;;;;12.94;100.00;99138.66;5039350;28;20449;-73
2023/10/19 01:55:41;;;;;;;11.52;5.93;;;;;;;12.97;100.00;99134.75;5047103;28;20049;-73
2023/10/19 01:58:08;;;;;;;11.63;5.95;;;;;;;13.00;100.00;99134.41;5029662;28;20052;-73
2023/10/19 02:00:37;;;;;;;10.65;5.90;;;;;;;13.05;100.00;99137.47;5041608;28;20037;-73
2023/10/19 02:03:07;;;;;;;10.45;5.63;;;;;;;13.03;100.00;99142.25;5042087;28;20036;-73
2023/10/19 02:05:39;;;;;;;10.38;4.78;;;;;;;13.11;100.00;99146.88;5040519;28;20045;-73
2023/10/19 02:08:07;;;;;;;8.10;4.93;;;;;;;13.11;100.00;99135.97;5039191;28;20045;-73
2023/10/19 02:10:34;;;;;;;7.10;4.82;;;;;;;13.13;100.00;99144.84;5047485;28;20471;-73
2023/10/19 02:12:59;;;;;;;8.70;5.20;;;;;;;13.15;100.00;99149.13;5046061;28;20087;-73
2023/10/19 02:15:34;;;;;;;8.32;4.53;;;;;;;13.15;100.00;99138.19;5044983;28;20045;-73
2023/10/19 02:18:02;;;;;;;5.20;4.07;;;;;;;13.20;100.00;99141.25;5044776;28;20396;-73
2023/10/19 02:20:28;;;;;;;6.15;4.15;;;;;;;13.24;100.00;99134.47;5046278;28;20029;-73
2023/10/19 02:22:57;;;;;;;10.68;3.72;;;;;;;13.28;100.00;99132.22;5034062;28;20049;-73
2023/10/19 02:25:25;;;;;;;9.27;3.97;;;;;;;13.33;100.00;99135.31;5027457;28;20029;-73
2023/10/19 02:27:52;;;;;;;6.65;3.15;;;;;;;13.37;100.00;99130.34;5025999;28;20038;-73
2023/10/19 02:30:17;;;;;;;8.60;3.45;;;;;;;13.37;100.00;99136.66;5037021;28;20492;-73
2023/10/19 02:32:44;;;;;;;7.18;2.78;;;;;;;13.41;100.00;99135.31;5041517;28;20464;-73
2023/10/19 02:35:09;;;;;;;4.63;2.67;;;;;;;13.42;100.00;99131.53;5025354;28;20037;-73
2023/10/19 02:37:35;;;;;;;5.95;2.63;;;;;;;13.45;100.00;99131.22;5025787;28;20034;-73
2023/10/19 02:40:00;;;;;;;6.13;2.00;;;;;;;13.42;100.00;99126.09;5025806;28;20370;-73
2023/10/19 02:42:25;;;;;;;5.40;2.25;;;;;;;13.47;100.00;99131.03;5030812;28;20042;-73
2023/10/19 02:44:51;;;;;;;7.63;2.00;;;;;;;13.48;100.00;99122.69;5041391;28;20112;-73
2023/10/19 02:47:17;;;;;;;6.00;1.95;;;;;;;13.49;100.00;99124.38;5018374;28;20040;-73
2023/10/19 02:49:44;;;;;;;4.40;2.08;;;;;;;13.51;100.00;99132.41;5046588;28;20038;-73
2023/10/19 02:52:12;;;;;;;5.57;1.52;;;;;;;13.51;100.00;99127.78;5041196;28;20041;-73
2023/10/19 02:54:39;;;;;;;4.93;1.25;;;;;;;13.54;100.00;99126.59;5025379;28;20033;-73
2023/10/19 02:57:09;;;;;;;5.95;1.63;;;;;;;13.56;100.00;99127.25;5031020;28;20033;-73
2023/10/19 02:59:36;;;;;;;3.25;1.58;;;;;;;13.58;100.00;99132.56;5044574;28;20315;-73
2023/10/19 03:02:17;;;;;;;5.93;1.50;;;;;;;13.58;100.00;99130.69;5039047;28;20080;-73
2023/10/19 03:04:43;;;;;;;4.25;1.38;;;;;;;13.59;100.00;99120.63;5025028;28;20041;-73
2023/10/19 03:07:10;;;;;;;4.10;1.38;;;;;;;13.61;100.00;99126.75;5024042;28;20024;-73
2023/10/19 03:09:57;;;;;;;2.47;1.17;;;;;;;13.61;100.00;99119.41;5008948;28;20033;-73
2023/10/19 03:12:25;;;;;;;5.85;1.52;;;;;;;13.63;100.00;99113.78;5030892;28;20072;-73
2023/10/19 03:14:51;;;;;;;3.13;1.38;;;;;;;13.62;100.00;99121.13;5045343;28;20139;-73
2023/10/19 03:17:18;;;;;;;3.40;1.55;;;;;;;13.61;100.00;99127.59;5037007;28;20037;-73
2023/10/19 03:19:43;;;;;;;3.40;1.30;;;;;;;13.65;100.00;99128.13;5025253;28;20072;-73
2023/10/19 03:22:09;;;;;;;3.55;1.40;;;;;;;13.66;100.00;99124.34;5027464;28;20061;-73
2023/10/19 03:27:18;;;;;;;11.45;1.65;;;;;;;13.64;100.00;99113.59;5025191;28;20041;-74
2023/10/19 03:29:54;;;;;;;3.92;1.17;;;;;;;13.66;100.00;99105.22;5025236;28;20037;-73
2023/10/19 03:32:27;;;;;;;6.63;2.00;;;;;;;13.68;100.00;99111.38;5036709;28;20095;-73
2023/10/19 03:34:55;;;;;;;5.50;1.75;;;;;;;13.67;100.00;99099.59;5026752;28;20493;-74
2023/10/19 03:37:22;;;;;;;5.82;1.70;;;;;;;13.63;100.00;99091.91;5030942;28;20443;-74
2023/10/19 03:39:48;;;;;;;3.10;1.77;;;;;;;13.68;100.00;99097.72;5015221;28;20033;-73
2023/10/19 03:42:14;;;;;;;5.90;1.80;;;;;;;13.65;100.00;99095.31;5031889;28;20029;-74
2023/10/19 03:47:19;;;;;;;4.20;1.60;;;;;;;13.61;100.00;99094.81;5032701;28;20029;-74
2023/10/19 03:49:46;;;;;;;2.75;1.52;;;;;;;13.60;100.00;99098.56;5034436;28;20437;-73
2023/10/19 03:54:41;;;;;;;2.05;1.48;;;;;;;13.60;100.00;99105.91;5031171;28;20465;-73
2023/10/19 03:57:19;;;;;;;6.55;2.13;;;;;;;13.55;100.00;99097.41;5043651;28;20033;-74
2023/10/19 03:59:45;;;;;;;2.78;1.40;;;;;;;13.50;100.00;99096.03;5052740;28;20049;-74
2023/10/19 04:02:13;;;;;;;5.43;2.08;;;;;;;13.46;100.00;99088.34;5044614;28;20025;-74
2023/10/19 04:04:43;;;;;;;5.20;1.60;;;;;;;13.44;100.00;99090.41;5014532;28;20092;-74
2023/10/19 04:07:22;;;;;;;3.25;1.70;;;;;;;13.40;100.00;99095.38;5035646;28;20029;-74
2023/10/19 04:09:57;;;;;;;9.50;1.80;;;;;;;13.39;100.00;99085.47;5052507;28;20578;-74
2023/10/19 04:12:31;;;;;;;4.80;1.80;;;;;;;13.36;100.00;99087.69;5052639;28;20045;-74
2023/10/19 04:14:57;;;;;;;5.43;1.70;;;;;;;13.32;100.00;99084.44;5052714;28;20516;-73
2023/10/19 04:17:23;;;;;;;4.93;1.70;;;;;;;13.30;100.00;99091.13;5042537;28;20091;-74
2023/10/19 04:19:54;;;;;;;6.07;1.50;;;;;;;13.24;100.00;99089.91;5030769;28;20507;-74
2023/10/19 04:22:23;;;;;;;5.13;1.90;;;;;;;13.19;100.00;99092.25;5032420;28;20044;-74
2023/10/19 04:24:50;;;;;;;2.97;1.80;;;;;;;13.14;100.00;99092.78;5032659;28;20048;-74
2023/10/19 04:27:15;;;;;;;6.75;1.80;;;;;;;13.11;100.00;99084.09;5031430;28;20041;-74
2023/10/19 04:29:43;;;;;;;6.07;1.42;;;;;;;13.09;100.00;99086.13;5038865;28;20091;-73
2023/10/19 04:32:09;;;;;;;2.97;1.67;;;;;;;13.08;100.00;99092.63;5050554;28;20090;-73
2023/10/19 04:34:36;;;;;;;4.00;2.05;;;;;;;13.02;100.00;99094.16;5050476;28;20040;-74
2023/10/19 04:37:03;;;;;;;2.92;1.80;;;;;;;13.00;100.00;99085.25;5050044;28;20492;-74
2023/10/19 04:39:30;;;;;;;2.95;1.70;;;;;;;12.95;100.00;99085.78;5052367;28;20066;-74
2023/10/19 04:41:55;;;;;;;3.42;1.40;;;;;;;12.92;100.00;99080.69;5048785;28;20124;-73
2023/10/19 04:44:21;;;;;;;10.57;1.50;;;;;;;12.89;100.00;99080.16;5031760;28;20123;-73
2023/10/19 04:46:46;;;;;;;2.75;1.73;;;;;;;12.85;100.00;99090.53;5031587;28;20080;-74
2023/10/19 04:49:11;;;;;;;3.97;1.55;;;;;;;12.80;100.00;99083.91;5027672;28;20092;-73
2023/10/19 04:51:38;;;;;;;2.28;1.52;;;;;;;12.80;100.00;99090.19;4999260;28;20068;-73
2023/10/19 04:54:05;;;;;;;3.38;1.35;;;;;;;12.75;100.00;99093.44;5046060;28;20554;-73
2023/10/19 04:56:32;;;;;;;6.03;2.10;;;;;;;12.80;100.00;99100.28;4985399;28;20057;-73
2023/10/19 04:58:57;;;;;;;6.25;1.70;;;;;;;12.82;100.00;99090.88;5030158;28;20021;-73
2023/10/19 05:01:22;;;;;;;4.45;1.58;;;;;;;12.86;100.00;99092.25;5027926;28;20037;-73
2023/10/19 05:03:48;;;;;;;5.78;1.77;;;;;;;12.86;100.00;99096.84;5027805;28;20100;-73
2023/10/19 05:06:13;;;;;;;7.90;1.48;;;;;;;12.86;100.00;99097.72;5028570;28;20064;-73
2023/10/19 05:08:39;;;;;;;3.88;1.42;;;;;;;12.87;100.00;99101.28;5034487;28;20033;-73
2023/10/19 05:11:04;;;;;;;4.60;1.50;;;;;;;12.87;100.00;99101.28;5031141;28;20128;-73
2023/10/19 05:13:32;;;;;;;6.38;2.05;;;;;;;12.90;100.00;99100.97;5028354;28;20038;-73
2023/10/19 05:16:01;;;;;;;10.35;1.95;;;;;;;12.92;100.00;99099.78;5018088;28;20037;-73
2023/10/19 05:18:27;;;;;;;7.47;1.98;;;;;;;12.94;100.00;99105.06;5041006;28;20044;-73
2023/10/19 05:20:56;;;;;;;6.55;1.65;;;;;;;12.95;100.00;99112.22;5028495;28;20108;-73
2023/10/19 05:23:25;;;;;;;7.50;1.83;;;;;;;12.95;100.00;99107.63;5038339;28;20036;-73
2023/10/19 05:26:00;;;;;;;5.20;1.70;;;;;;;12.96;100.00;99101.16;5013035;28;20050;-73
2023/10/19 05:28:26;;;;;;;7.97;1.60;;;;;;;12.96;100.00;99101.16;5027808;28;20059;-73
2023/10/19 05:30:51;;;;;;;4.82;1.60;;;;;;;12.95;100.00;99106.75;5031179;28;20489;-73
2023/10/19 05:33:20;;;;;;;4.57;1.67;;;;;;;12.93;100.00;99100.63;5038372;28;20037;-74
2023/10/19 05:35:50;;;;;;;3.97;1.60;;;;;;;12.95;100.00;99102.16;5028061;28;20469;-73
2023/10/19 05:38:16;;;;;;;4.72;1.85;;;;;;;12.96;100.00;99106.63;5041196;28;20052;-73
2023/10/19 05:40:45;;;;;;;2.78;1.58;;;;;;;12.94;100.00;99105.91;5033009;28;20073;-73
2023/10/19 05:43:11;;;;;;;6.50;1.83;;;;;;;12.96;100.00;99113.91;5045345;28;20386;-72
2023/10/19 05:45:37;;;;;;;6.07;2.30;;;;;;;12.97;100.00;99116.50;5028681;28;20095;-73
2023/10/19 05:48:06;;;;;;;6.15;1.85;;;;;;;12.97;100.00;99118.38;5035816;28;20060;-73
2023/10/19 05:50:32;;;;;;;9.55;1.98;;;;;;;12.98;100.00;99122.81;5067058;28;20029;-73
2023/10/19 05:52:57;;;;;;;9.95;1.95;;;;;;;13.00;100.00;99123.47;5044025;28;20044;-73
2023/10/19 05:55:22;;;;;;;5.38;1.90;;;;;;;13.00;100.00;99124.34;5026873;28;20045;-73
2023/10/19 05:57:49;;;;;;;8.32;1.90;;;;;;;13.03;100.00;99120.44;5041509;28;20759;-73
2023/10/19 06:00:15;;;;;;;7.78;2.10;;;;;;;13.02;100.00;99121.47;5046253;28;20098;-73
2023/10/19 06:02:45;;;;;;;4.45;2.33;;;;;;;13.03;100.00;99128.63;5036661;28;20029;-73
2023/10/19 06:05:15;;;;;;;7.28;2.30;;;;;;;13.00;100.00;99124.34;5026104;28;20049;-73
2023/10/19 06:07:44;;;;;;;6.28;2.92;;;;;;;13.03;100.00;99124.00;5035659;28;20091;-73
2023/10/19 06:10:17;;;;;;;8.98;2.00;;;;;;;13.06;100.00;99116.53;5048356;28;20075;-73
2023/10/19 06:12:47;;;;;;;9.00;2.15;;;;;;;13.07;100.00;99129.13;5048213;28;20103;-73
2023/10/19 06:15:14;;;;;;;6.32;1.92;;;;;;;13.05;100.00;99133.91;5042709;28;20049;-73
2023/10/19 06:17:40;;;;;;;9.98;2.17;;;;;;;13.06;100.00;99136.47;5037698;28;20084;-73
2023/10/19 06:20:22;;;;;;;9.27;2.40;;;;;;;13.07;100.00;99145.53;5026505;28;20036;-73
2023/10/19 06:22:50;;;;;;;9.43;2.47;;;;;;;13.08;100.00;99141.75;5027689;28;20405;-73
2023/10/19 06:25:18;;;;;;;9.50;2.53;;;;;;;13.11;100.00;99141.44;5027733;28;20489;-73
2023/10/19 06:27:44;;;;;;;9.98;2.40;;;;;;;13.11;100.00;99134.09;5027817;28;20464;-73
2023/10/19 06:30:10;;;;;;;8.90;2.60;;;;;;;13.12;100.00;99129.47;5027500;28;20144;-73
2023/10/19 06:32:36;;;;;;;6.75;2.15;;;;;;;13.13;100.00;99129.31;5026585;28;20359;-73
2023/10/19 06:35:03;;;;;;;5.15;2.00;;;;;;;13.11;100.00;99135.97;5026619;28;20088;-73
2023/10/19 06:37:28;;;;;;;8.05;2.20;;;;;;;13.11;100.00;99136.81;5033243;28;20036;-73
2023/10/19 06:39:54;;;;;;;12.43;2.75;;;;;;;13.13;100.00;99144.84;5046048;28;20385;-73
2023/10/19 06:42:19;;;;;;;7.40;2.50;;;;;;;13.14;100.00;99147.38;5042813;28;20413;-73
2023/10/19 06:44:44;;;;;;;8.23;3.08;;;;;;;13.13;100.00;99148.41;5027187;28;20041;-73
2023/10/19 06:47:10;;;;;;;7.55;2.30;;;;;;;13.12;100.00;99148.59;5033000;28;20033;-73
2023/10/19 06:49:36;;;;;;;13.43;2.85;;;;;;;13.14;100.00;99152.00;5024685;28;20025;-73
2023/10/19 06:52:04;;;;;;;9.75;2.72;;;;;;;13.14;100.00;99152.84;5026512;28;20079;-73
2023/10/19 06:54:30;;;;;;;7.03;2.60;;;;;;;13.16;100.00;99147.22;5025712;28;20120;-73
2023/10/19 06:56:55;;;;;;;7.93;2.92;;;;;;;13.16;100.00;99148.09;5025324;28;20460;-73
2023/10/19 06:59:21;;;;;;;5.70;2.58;;;;;;;13.18;100.00;99151.50;5025951;28;20025;-73
2023/10/19 07:01:47;;;;;;;9.02;2.45;;;;;;;13.20;100.00;99154.06;5025801;28;20061;-73
2023/10/19 07:04:13;;;;;;;11.70;3.00;;;;;;;13.23;100.00;99156.47;5024963;28;20068;-73
2023/10/19 07:06:38;;;;;;;7.72;2.45;;;;;;;13.29;100.00;99164.00;5026210;28;20486;-73
2023/10/19 07:09:05;;;;;;;9.82;2.25;;;;;;;13.32;100.00;99157.34;5025263;28;20160;-73
2023/10/19 07:11:32;;;;;;;10.38;3.50;;;;;;;13.36;100.00;99167.75;5025938;28;20030;-72
2023/10/19 07:13:57;;;;;;;10.52;3.03;;;;;;;13.40;100.00;99157.34;5026612;28;20037;-73
2023/10/19 07:16:23;;;;;;;9.00;3.40;;;;;;;13.45;100.00;99158.53;5026132;28;20493;-73
2023/10/19 07:18:49;;;;;;;10.20;2.70;;;;;;;13.49;100.00;99156.31;5045530;28;20041;-73
2023/10/19 07:21:14;;;;;;;8.52;3.22;;;;;;;13.53;100.00;99157.69;5045864;28;20428;-73
2023/10/19 07:23:40;;;;;;;5.97;2.45;;;;;;;13.55;100.00;99168.44;5028378;28;20434;-73
2023/10/19 07:26:06;;;;;;;8.18;2.45;;;;;;;13.58;100.00;99170.84;5026763;28;20061;-73
2023/10/19 07:28:32;;;;;;;8.77;2.80;;;;;;;13.59;100.00;99165.19;5025180;28;20087;-73
2023/10/19 07:30:59;;;;;;;10.02;2.60;;;;;;;13.61;100.00;99159.53;5026051;28;20053;-73
2023/10/19 07:33:26;;;;;;;10.05;2.65;;;;;;;13.60;100.00;99155.09;5041866;28;20041;-73
2023/10/19 07:35:55;;;;;;;8.57;2.80;;;;;;;13.64;100.00;99160.06;5044678;28;20033;-73
2023/10/19 07:38:24;;;;;;;11.27;2.80;;;;;;;13.64;100.00;99151.00;5031620;28;20513;-73
2023/10/19 07:40:52;;;;;;;7.80;3.95;;;;;;;13.67;100.00;99148.78;5025059;28;20048;-73
2023/10/19 07:43:19;;;;;;;7.25;3.25;;;;;;;13.69;100.00;99149.47;5024839;28;20041;-74
2023/10/19 07:45:46;;;;;;;7.60;3.58;;;;;;;13.71;100.00;99149.31;5026096;28;20632;-73
2023/10/19 07:48:13;;;;;;;8.68;2.70;;;;;;;13.73;100.00;99148.09;5025134;28;20037;-73
2023/10/19 07:50:42;;;;;;;8.40;2.95;;;;;;;13.76;100.00;99144.16;5024414;28;20052;-73
2023/10/19 07:53:09;;;;;;;11.38;2.55;;;;;;;13.81;100.00;99147.22;5026230;28;20111;-73
2023/10/19 07:55:35;;;;;;;12.55;3.17;;;;;;;13.86;100.00;99150.28;5025293;28;20405;-73
2023/10/19 07:58:01;;;;;;;11.07;3.45;;;;;;;13.94;100.00;99143.94;5026091;28;20101;-73
2023/10/19 08:00:29;;;;;;;11.48;3.20;;;;;;;14.00;100.00;99149.56;5026053;28;20052;-73
2023/10/19 08:02:55;;;;;;;11.18;2.90;;;;;;;14.04;100.00;99145.47;5024558;28;20029;-74
2023/10/19 08:05:21;;;;;;;9.00;3.28;;;;;;;14.08;100.00;99145.09;5025168;28;20692;-73
2023/10/19 08:07:47;;;;;;;9.10;2.65;;;;;;;14.12;100.00;99138.25;5025913;28;20037;-73
2023/10/19 08:10:15;;;;;;;12.60;2.92;;;;;;;14.15;100.00;99136.03;5025469;28;20127;-73
2023/10/19 08:12:41;;;;;;;9.80;3.20;;;;;;;14.19;100.00;99133.78;5026689;28;20091;-73
2023/10/19 08:15:15;;;;;;;12.23;2.80;;;;;;;14.20;100.00;99144.56;5028646;28;20042;-73
2023/10/19 08:17:50;;;;;;;10.73;2.70;;;;;;;14.21;100.00;99132.56;5029494;28;20041;-73
2023/10/19 08:20:16;;;;;;;11.98;2.30;;;;;;;14.26;100.00;99132.03;5023652;28;20046;-73
2023/10/19 08:22:47;;;;;;;9.48;2.65;;;;;;;14.29;100.00;99129.81;5029521;28;20045;-73
2023/10/19 08:25:15;;;;;;;8.10;2.47;;;;;;;14.33;100.00;99124.84;5030684;28;20041;-73
2023/10/19 08:27:44;;;;;;;9.77;2.70;;;;;;;14.40;100.00;99125.81;5030101;28;20049;-73
2023/10/19 08:30:13;;;;;;;9.98;2.75;;;;;;;14.52;100.00;99135.38;5029841;28;20064;-74
2023/10/19 08:32:41;;;;;;;11.52;3.13;;;;;;;14.61;100.00;99128.00;5038671;28;20151;-73
2023/10/19 08:35:08;;;;;;;12.02;3.75;;;;;;;14.70;100.00;99134.28;5048519;28;20546;-73
2023/10/19 08:37:33;;;;;;;9.63;2.65;;;;;;;14.78;100.00;99126.00;5044426;28;20143;-73
2023/10/19 08:40:00;;;;;;;12.82;2.95;;;;;;;14.87;100.00;99130.38;5049461;28;20021;-73
2023/10/19 08:42:26;;;;;;;8.30;3.05;;;;;;;14.92;100.00;99128.00;5044559;28;20051;-73
2023/10/19 08:44:51;;;;;;;9.45;2.67;;;;;;;14.98;100.00;99123.66;5029392;28;20037;-73
2023/10/19 08:47:17;;;;;;;12.85;2.67;;;;;;;15.02;100.00;99125.84;5041131;28;20040;-73
2023/10/19 08:49:42;;;;;;;14.60;2.53;;;;;;;15.03;100.00;99122.09;5029348;28;20033;-74
2023/10/19 08:52:09;;;;;;;13.15;3.53;;;;;;;15.12;100.00;99128.34;5027184;28;20037;-74
2023/10/19 08:54:34;;;;;;;8.57;2.58;;;;;;;15.29;100.00;99124.47;5027754;28;20128;-74
2023/10/19 08:57:02;;;;;;;6.13;2.50;;;;;;;15.44;100.00;99116.28;5027991;28;20036;-73
2023/10/19 08:59:28;;;;;;;5.70;2.17;;;;;;;15.57;100.00;99127.47;5027620;28;20034;-74
2023/10/19 09:02:02;;;;;;;9.50;2.50;;;;;;;15.71;100.00;99128.53;5029016;28;20485;-74
2023/10/19 09:04:28;;;;;;;10.38;2.70;;;;;;;15.78;100.00;99120.44;5010982;28;20490;-74
2023/10/19 09:06:55;;;;;;;9.05;2.60;;;;;;;15.84;100.00;99124.31;5026930;28;20022;-73
2023/10/19 09:09:21;;;;;;;5.15;2.35;;;;;;;15.90;100.00;99124.44;5027149;28;20493;-74
2023/10/19 09:11:49;;;;;;;14.30;2.45;;;;;;;15.97;100.00;99114.41;5027705;28;20044;-74
2023/10/19 09:14:17;;;;;;;9.38;2.90;;;;;;;16.12;100.00;99108.06;5027627;28;20496;-74
2023/10/19 09:16:57;;;;;;;10.13;2.38;;;;;;;16.20;100.00;99102.47;5030754;28;20041;-74
2023/10/19 09:19:48;;;;;;;7.45;2.42;;;;;;;16.30;100.00;99095.66;5027741;28;20045;-74
2023/10/19 09:22:18;;;;;;;9.23;2.50;;;;;;;16.48;100.00;99089.75;5029075;28;20056;-74
2023/10/19 09:24:45;;;;;;;10.27;2.13;;;;;;;16.48;100.00;99088.91;5029278;28;20045;-73
2023/10/19 09:27:12;;;;;;;7.15;2.30;;;;;;;16.49;100.00;99085.97;5029304;28;20037;-74
2023/10/19 09:29:38;;;;;;;6.72;1.90;;;;;;;16.50;100.00;99090.41;5028456;28;20044;-74
2023/10/19 09:32:05;;;;;;;11.95;2.90;;;;;;;16.55;100.00;99087.09;5008308;28;20112;-73
2023/10/19 09:34:34;;;;;;;7.47;2.28;;;;;;;16.70;100.00;99084.31;5007094;28;20045;-74
2023/10/19 09:37:03;;;;;;;9.00;2.97;;;;;;;16.87;100.00;99099.53;5008517;28;20097;-74
2023/10/19 09:39:35;;;;;;;10.98;2.80;;;;;;;17.01;100.00;99098.63;5008639;28;20057;-73
2023/10/19 09:42:16;;;;;;;8.70;2.10;;;;;;;17.09;100.00;99097.66;5008324;28;20041;-74
2023/10/19 09:44:54;;;;;;;8.18;2.00;;;;;;;17.15;100.00;99102.34;5007888;28;20771;-74
2023/10/19 09:47:30;;;;;;;9.35;1.98;;;;;;;17.20;100.00;99093.53;5014435;28;20068;-73
2023/10/19 09:49:56;;;;;;;8.60;1.80;;;;;;;17.17;100.00;99099.44;5023141;28;20584;-73
2023/10/19 09:52:24;;;;;;;11.40;2.10;;;;;;;17.10;100.00;99102.09;5008041;28;20045;-73
2023/10/19 09:55:37;;;;;;;6.07;2.08;;;;;;;17.07;100.00;99089.63;5008520;28;20042;-73
2023/10/19 09:58:06;;;;;;;;;;;;;;;17.12;100.00;99086.28;5028514;28;20041;-74
2023/10/19 10:00:31;;;;;;;15.85;2.17;;;;;;;17.12;100.00;99082.69;5026589;28;20329;-74
2023/10/19 10:02:57;;;;;;;11.35;1.83;;;;;;;17.16;100.00;99070.22;5014042;28;20026;-74
2023/10/19 10:05:37;;;;;;;8.68;1.95;;;;;;;17.23;100.00;99068.41;5007262;28;20141;-73
2023/10/19 10:08:18;;;;;;;12.07;2.17;;;;;;;17.29;100.00;99071.19;5008142;28;20095;-74
2023/10/19 10:10:44;;;;;;;8.60;2.13;;;;;;;17.37;100.00;99072.97;5008759;28;20622;-74
2023/10/19 10:13:24;;;;;;;11.63;2.20;;;;;;;17.52;100.00;99073.72;5006527;28;20029;-74
2023/10/19 10:15:55;;;;;;;8.20;2.20;;;;;;;17.60;100.00;99061.72;5027822;28;20124;-74
2023/10/19 10:18:24;;;;;;;12.02;2.08;;;;;;;17.66;100.00;99076.56;5021756;28;20034;-73
2023/10/19 10:21:04;;;;;;;7.63;2.08;;;;;;;17.68;100.00;99082.75;5007476;28;20030;-73
2023/10/19 10:23:34;;;;;;;10.00;1.70;;;;;;;17.73;100.00;99077.50;5006446;28;20041;-73
2023/10/19 10:25:59;;;;;;;13.27;2.38;;;;;;;17.82;99.38;99081.81;5008008;28;20038;-73
2023/10/19 10:28:24;;;;;;;8.98;1.90;;;;;;;17.87;97.89;99084.81;5006154;28;20048;-74
2023/10/19 10:31:21;;;;;;;11.98;1.90;;;;;;;18.01;100.00;99085.75;5017271;28;20037;-74
2023/10/19 10:33:51;;;;;;;10.38;2.00;;;;;;;18.13;98.95;99080.50;5044904;28;20068;-73
2023/10/19 10:36:20;;;;;;;8.68;2.00;;;;;;;18.19;98.30;99085.22;5046787;28;20033;-73
2023/10/19 10:38:48;;;;;;;8.30;1.92;;;;;;;18.13;93.97;99081.34;5029480;28;20064;-74
2023/10/19 10:41:27;;;;;;;10.98;1.60;;;;;;;18.02;95.50;99088.28;5028102;28;20428;-74
2023/10/19 10:43:55;;;;;;;10.60;2.08;;;;;;;18.01;96.84;99081.09;5027004;28;20041;-74
2023/10/19 10:46:25;;;;;;;14.02;2.05;;;;;;;17.97;95.25;99082.53;5027082;28;20033;-74
2023/10/19 10:48:51;;;;;;;9.90;1.90;;;;;;;17.92;95.46;99078.69;5026577;28;20044;-74
2023/10/19 10:51:25;;;;;;;8.77;2.05;;;;;;;17.90;95.53;99089.03;5026488;28;20521;-73
2023/10/19 10:53:52;;;;;;;12.18;2.80;;;;;;;17.96;96.80;99082.75;5042929;28;20047;-74
2023/10/19 10:56:19;;;;;;;10.57;2.15;;;;;;;17.99;96.93;99083.19;5045717;28;20426;-73
2023/10/19 10:58:45;;;;;;;9.38;2.17;;;;;;;18.07;96.58;99085.78;5011260;28;20034;-74
2023/10/19 11:01:11;;;;;;;3.35;1.52;;;;;;;18.08;94.73;99083.88;5027511;28;20392;-73
2023/10/19 11:03:40;;;;;;;5.80;1.95;;;;;;;18.06;95.33;99084.06;5042770;28;20044;-73
2023/10/19 11:06:07;;;;;;;9.68;2.00;;;;;;;18.05;95.18;99082.38;5046195;28;20051;-73
2023/10/19 11:08:34;;;;;;;10.95;2.03;;;;;;;18.03;95.16;99069.88;5040117;28;20025;-73
2023/10/19 11:11:17;;;;;;;13.52;2.35;;;;;;;18.00;96.07;99065.63;5027017;28;20434;-73
2023/10/19 11:13:43;;;;;;;11.35;2.05;;;;;;;17.97;94.70;99065.19;5027174;28;20120;-74
2023/10/19 11:16:09;;;;;;;9.10;1.60;;;;;;;17.96;96.38;99056.09;5025354;28;20120;-73
2023/10/19 11:18:40;;;;;;;11.75;2.15;;;;;;;17.99;96.41;99061.16;5040224;28;20032;-73
2023/10/19 11:21:10;;;;;;;12.15;2.42;;;;;;;18.03;95.29;99053.34;5044522;28;21154;-73
2023/10/19 11:23:49;;;;;;;7.68;2.28;;;;;;;18.05;95.20;99043.84;5044327;28;20362;-73
2023/10/19 11:26:19;;;;;;;10.60;2.40;;;;;;;18.06;94.05;99055.72;5047025;28;20599;-73
2023/10/19 11:28:51;;;;;;;9.35;2.58;;;;;;;18.13;95.79;99045.56;5032140;28;20037;-73
2023/10/19 11:31:18;;;;;;;10.57;2.15;;;;;;;18.25;94.49;99043.94;5026299;28;20135;-73
2023/10/19 11:33:48;;;;;;;10.63;1.73;;;;;;;18.35;96.25;99044.41;5042791;28;20128;-73
2023/10/19 11:36:15;;;;;;;7.97;2.28;;;;;;;18.41;93.55;99039.97;5045001;28;20199;-74
2023/10/19 11:38:42;;;;;;;12.15;2.95;;;;;;;18.44;94.38;99034.06;5029365;28;20038;-74
2023/10/19 11:41:07;;;;;;;9.63;2.30;;;;;;;18.40;94.07;99035.53;5026539;28;20111;-73
2023/10/19 11:43:34;;;;;;;10.85;2.65;;;;;;;18.41;94.12;99028.13;5035783;28;20080;-73
2023/10/19 11:46:00;;;;;;;9.43;1.92;;;;;;;18.36;93.30;99029.56;5026181;28;20545;-73
2023/10/19 11:48:26;;;;;;;10.05;2.75;;;;;;;18.24;91.41;99022.13;5040735;28;20109;-74
2023/10/19 11:50:51;;;;;;;12.95;2.30;;;;;;;18.15;92.25;99017.88;5027412;28;20384;-73